sensor_id;sensor_type;location;lat;lon;timestamp;pressure;altitude;pressure_sealevel;temperature;humidity
7052;BME280;3567;52.444;13.556;2022-11-13T00:00:01;102774.84;;;8.79;100.00
7052;BME280;3567;52.444;13.556;2022-11-13T00:02:26;102779.34;;;8.79;100.00
7052;BME280;3567;52.444;13.556;2022-11-13T00:04:52;102771.31;;;8.79;100.00
7052;BME280;3567;52.444;13.556;2022-11-13T00:07:17;102762.47;;;8.78;100.00
7052;BME280;3567;52.444;13.556;2022-11-13T00:09:42;102765.13;;;8.78;100.00
7052;BME280;3567;52.444;13.556;2022-11-13T00:12:08;102768.63;;;8.79;100.00
7052;BME280;3567;52.444;13.556;2022-11-13T00:14:33;102763.28;;;8.79;100.00
7052;BME280;3567;52.444;13.556;2022-11-13T00:16:58;102763.47;;;8.77;100.00
7052;BME280;3567;52.444;13.556;2022-11-13T00:19:24;102767.81;;;8.78;100.00
7052;BME280;3567;52.444;13.556;2022-11-13T00:21:49;102771.50;;;8.77;100.00
7052;BME280;3567;52.444;13.556;2022-11-13T00:24:14;102764.31;;;8.78;100.00
7052;BME280;3567;52.444;13.556;2022-11-13T00:26:40;102772.31;;;8.78;100.00
7052;BME280;3567;52.444;13.556;2022-11-13T00:29:05;102764.31;;;8.78;100.00
7052;BME280;3567;52.444;13.556;2022-11-13T00:31:30;102764.31;;;8.78;100.00
7052;BME280;3567;52.444;13.556;2022-11-13T00:33:59;102769.66;;;8.78;100.00
7052;BME280;3567;52.444;13.556;2022-11-13T00:36:27;102762.47;;;8.78;100.00
7052;BME280;3567;52.444;13.556;2022-11-13T00:38:53;102765.13;;;8.78;100.00
7052;BME280;3567;52.444;13.556;2022-11-13T00:41:19;102765.13;;;8.78;100.00
7052;BME280;3567;52.444;13.556;2022-11-13T00:43:45;102765.97;;;8.79;100.00
7052;BME280;3567;52.444;13.556;2022-11-13T00:46:10;102765.13;;;8.78;100.00
7052;BME280;3567;52.444;13.556;2022-11-13T00:48:36;102763.47;;;8.77;100.00
7052;BME280;3567;52.444;13.556;2022-11-13T00:51:02;102757.13;;;8.78;100.00
7052;BME280;3567;52.444;13.556;2022-11-13T00:53:28;102749.94;;;8.79;100.00
7052;BME280;3567;52.444;13.556;2022-11-13T00:55:53;102745.47;;;8.79;100.00
7052;BME280;3567;52.444;13.556;2022-11-13T00:58:19;102744.59;;;8.79;100.00
7052;BME280;3567;52.444;13.556;2022-11-13T01:00:45;102742.94;;;8.78;100.00
7052;BME280;3567;52.444;13.556;2022-11-13T01:03:11;102743.63;;;8.80;100.00
7052;BME280;3567;52.444;13.556;2022-11-13T01:05:39;102740.94;;;8.80;100.00
7052;BME280;3567;52.444;13.556;2022-11-13T01:08:06;102744.28;;;8.82;100.00
7052;BME280;3567;52.444;13.556;2022-11-13T01:10:32;102734.59;;;8.81;100.00
7052;BME280;3567;52.444;13.556;2022-11-13T01:12:58;102725.75;;;8.80;100.00
7052;BME280;3567;52.444;13.556;2022-11-13T01:15:24;102729.06;;;8.82;100.00
7052;BME280;3567;52.444;13.556;2022-11-13T01:17:49;102728.06;;;8.83;100.00
7052;BME280;3567;52.444;13.556;2022-11-13T01:20:16;102725.06;;;8.86;100.00
7052;BME280;3567;52.444;13.556;2022-11-13T01:22:41;102729.41;;;8.87;100.00
7052;BME280;3567;52.444;13.556;2022-11-13T01:25:07;102719.41;;;8.89;100.00
7052;BME280;3567;52.444;13.556;2022-11-13T01:27:35;102723.56;;;8.92;100.00
7052;BME280;3567;52.444;13.556;2022-11-13T01:30:00;102717.88;;;8.95;100.00
7052;BME280;3567;52.444;13.556;2022-11-13T01:32:25;102716.69;;;8.98;100.00
7052;BME280;3567;52.444;13.556;2022-11-13T01:34:51;102724.38;;;9.01;100.00
7052;BME280;3567;52.444;13.556;2022-11-13T01:37:16;102726.72;;;9.04;100.00
7052;BME280;3567;52.444;13.556;2022-11-13T01:39:41;102723.72;;;9.07;100.00
7052;BME280;3567;52.444;13.556;2022-11-13T01:42:07;102720.84;;;9.08;100.00
7052;BME280;3567;52.444;13.556;2022-11-13T01:47:17;102720.69;;;9.10;100.00
7052;BME280;3567;52.444;13.556;2022-11-13T01:49:44;102713.34;;;9.12;100.00
7052;BME280;3567;52.444;13.556;2022-11-13T01:52:17;102709.28;;;9.16;100.00
7052;BME280;3567;52.444;13.556;2022-11-13T01:54:49;102713.16;;;9.22;100.00
7052;BME280;3567;52.444;13.556;2022-11-13T01:57:17;102702.59;;;9.28;100.00
7052;BME280;3567;52.444;13.556;2022-11-13T01:59:47;102703.56;;;9.35;100.00
7052;BME280;3567;52.444;13.556;2022-11-13T02:02:14;102692.53;;;9.38;100.00
7052;BME280;3567;52.444;13.556;2022-11-13T02:04:39;102700.06;;;9.43;100.00
7052;BME280;3567;52.444;13.556;2022-11-13T02:07:07;102694.50;;;9.44;100.00
7052;BME280;3567;52.444;13.556;2022-11-13T02:09:39;102684.31;;;9.48;100.00
7052;BME280;3567;52.444;13.556;2022-11-13T02:12:06;102679.09;;;9.55;100.00
7052;BME280;3567;52.444;13.556;2022-11-13T02:14:33;102682.22;;;9.58;100.00
7052;BME280;3567;52.444;13.556;2022-11-13T02:17:04;102688.25;;;9.60;100.00
7052;BME280;3567;52.444;13.556;2022-11-13T02:19:35;102684.41;;;9.63;100.00
7052;BME280;3567;52.444;13.556;2022-11-13T02:22:21;102681.38;;;9.66;100.00
7052;BME280;3567;52.444;13.556;2022-11-13T02:24:49;102675.84;;;9.67;100.00
7052;BME280;3567;52.444;13.556;2022-11-13T02:27:34;102687.22;;;9.69;100.00
7052;BME280;3567;52.444;13.556;2022-11-13T02:30:18;102681.69;;;9.71;100.00
7052;BME280;3567;52.444;13.556;2022-11-13T02:32:46;102681.69;;;9.71;100.00
7052;BME280;3567;52.444;13.556;2022-11-13T02:35:14;102682.34;;;9.73;100.00
7052;BME280;3567;52.444;13.556;2022-11-13T02:37:40;102675.13;;;9.74;100.00
7052;BME280;3567;52.444;13.556;2022-11-13T02:40:05;102674.13;;;9.75;100.00
7052;BME280;3567;52.444;13.556;2022-11-13T02:42:31;102672.31;;;9.75;100.00
7052;BME280;3567;52.444;13.556;2022-11-13T02:44:56;102672.31;;;9.75;100.00
7052;BME280;3567;52.444;13.556;2022-11-13T02:47:22;102667.78;;;9.76;100.00
7052;BME280;3567;52.444;13.556;2022-11-13T02:49:47;102665.25;;;9.74;100.00
7052;BME280;3567;52.444;13.556;2022-11-13T02:52:12;102665.94;;;9.76;100.00
7052;BME280;3567;52.444;13.556;2022-11-13T02:54:38;102661.59;;;9.75;100.00
7052;BME280;3567;52.444;13.556;2022-11-13T02:57:03;102657.09;;;9.76;100.00
7052;BME280;3567;52.444;13.556;2022-11-13T02:59:28;102651.53;;;9.77;100.00
7052;BME280;3567;52.444;13.556;2022-11-13T03:01:54;102661.22;;;9.78;100.00
7052;BME280;3567;52.444;13.556;2022-11-13T03:04:19;102646.84;;;9.79;100.00
7052;BME280;3567;52.444;13.556;2022-11-13T03:06:45;102641.47;;;9.79;100.00
7052;BME280;3567;52.444;13.556;2022-11-13T03:09:10;102648.34;;;9.82;100.00
7052;BME280;3567;52.444;13.556;2022-11-13T03:11:36;102645.84;;;9.80;100.00
7052;BME280;3567;52.444;13.556;2022-11-13T03:14:01;102635.97;;;9.81;100.00
7052;BME280;3567;52.444;13.556;2022-11-13T03:16:27;102643.19;;;9.80;100.00
7052;BME280;3567;52.444;13.556;2022-11-13T03:18:54;102635.78;;;9.82;100.00
7052;BME280;3567;52.444;13.556;2022-11-13T03:21:19;102636.63;;;9.83;100.00
7052;BME280;3567;52.444;13.556;2022-11-13T03:23:45;102638.28;;;9.84;100.00
7052;BME280;3567;52.444;13.556;2022-11-13T03:26:12;102632.09;;;9.83;100.00
7052;BME280;3567;52.444;13.556;2022-11-13T03:28:38;102633.75;;;9.84;100.00
7052;BME280;3567;52.444;13.556;2022-11-13T03:31:04;102633.75;;;9.84;100.00
7052;BME280;3567;52.444;13.556;2022-11-13T03:33:30;102632.94;;;9.84;100.00
7052;BME280;3567;52.444;13.556;2022-11-13T03:35:55;102632.09;;;9.83;100.00
7052;BME280;3567;52.444;13.556;2022-11-13T03:38:21;102634.13;;;9.81;100.00
7052;BME280;3567;52.444;13.556;2022-11-13T03:40:47;102634.13;;;9.81;100.00
7052;BME280;3567;52.444;13.556;2022-11-13T03:43:12;102632.28;;;9.82;100.00
7052;BME280;3567;52.444;13.556;2022-11-13T03:45:38;102633.31;;;9.81;100.00
7052;BME280;3567;52.444;13.556;2022-11-13T03:48:03;102635.78;;;9.82;100.00
7052;BME280;3567;52.444;13.556;2022-11-13T03:50:29;102634.13;;;9.81;100.00
7052;BME280;3567;52.444;13.556;2022-11-13T03:52:54;102635.78;;;9.82;100.00
7052;BME280;3567;52.444;13.556;2022-11-13T03:55:20;102633.47;;;9.79;100.00
7052;BME280;3567;52.444;13.556;2022-11-13T03:57:46;102635.97;;;9.81;100.00
7052;BME280;3567;52.444;13.556;2022-11-13T04:00:12;102634.13;;;9.81;100.00
7052;BME280;3567;52.444;13.556;2022-11-13T04:02:38;102628.78;;;9.81;100.00
7052;BME280;3567;52.444;13.556;2022-11-13T04:05:04;102628.94;;;9.80;100.00
7052;BME280;3567;52.444;13.556;2022-11-13T04:07:30;102630.78;;;9.79;100.00
7052;BME280;3567;52.444;13.556;2022-11-13T04:09:55;102637.16;;;9.78;100.00
7052;BME280;3567;52.444;13.556;2022-11-13T04:12:20;102641.84;;;9.76;100.00
7052;BME280;3567;52.444;13.556;2022-11-13T04:14:46;102640.19;;;9.75;100.00
7052;BME280;3567;52.444;13.556;2022-11-13T04:17:11;102631.31;;;9.75;100.00
7052;BME280;3567;52.444;13.556;2022-11-13T04:19:36;102640.34;;;9.74;100.00
7052;BME280;3567;52.444;13.556;2022-11-13T04:22:01;102633.53;;;9.71;100.00
7052;BME280;3567;52.444;13.556;2022-11-13T04:24:27;102633.53;;;9.71;100.00
7052;BME280;3567;52.444;13.556;2022-11-13T04:26:52;102630.84;;;9.71;100.00
7052;BME280;3567;52.444;13.556;2022-11-13T04:29:17;102629.34;;;9.68;100.00
7052;BME280;3567;52.444;13.556;2022-11-13T04:31:43;102622.16;;;9.69;100.00
7052;BME280;3567;52.444;13.556;2022-11-13T04:34:08;102617.81;;;9.68;100.00
7052;BME280;3567;52.444;13.556;2022-11-13T04:36:34;102608.75;;;9.69;100.00
7052;BME280;3567;52.444;13.556;2022-11-13T04:38:59;102612.44;;;9.68;100.00
7052;BME280;3567;52.444;13.556;2022-11-13T04:41:24;102617.66;;;9.69;100.00
7052;BME280;3567;52.444;13.556;2022-11-13T04:44:08;102614.97;;;9.69;100.00
7052;BME280;3567;52.444;13.556;2022-11-13T04:46:33;102610.59;;;9.68;100.00
7052;BME280;3567;52.444;13.556;2022-11-13T04:48:59;102614.13;;;9.69;100.00
7052;BME280;3567;52.444;13.556;2022-11-13T04:51:24;102613.28;;;9.68;100.00
7052;BME280;3567;52.444;13.556;2022-11-13T04:53:49;102617.81;;;9.68;100.00
7052;BME280;3567;52.444;13.556;2022-11-13T04:56:15;102619.84;;;9.66;100.00
7052;BME280;3567;52.444;13.556;2022-11-13T04:58:40;102615.31;;;9.66;100.00
7052;BME280;3567;52.444;13.556;2022-11-13T05:01:05;102609.78;;;9.68;100.00
7052;BME280;3567;52.444;13.556;2022-11-13T05:03:31;102611.63;;;9.67;100.00
7052;BME280;3567;52.444;13.556;2022-11-13T05:06:04;102612.44;;;9.68;100.00
7052;BME280;3567;52.444;13.556;2022-11-13T05:08:30;102606.09;;;9.69;100.00
7052;BME280;3567;52.444;13.556;2022-11-13T05:10:55;102604.44;;;9.68;100.00
7052;BME280;3567;52.444;13.556;2022-11-13T05:13:21;102612.44;;;9.68;100.00
7052;BME280;3567;52.444;13.556;2022-11-13T05:15:46;102617.81;;;9.68;100.00
7052;BME280;3567;52.444;13.556;2022-11-13T05:18:12;102603.41;;;9.69;100.00
7052;BME280;3567;52.444;13.556;2022-11-13T05:20:38;102613.13;;;9.70;100.00
7052;BME280;3567;52.444;13.556;2022-11-13T05:23:03;102607.09;;;9.68;100.00
7052;BME280;3567;52.444;13.556;2022-11-13T05:25:29;102602.56;;;9.68;100.00
7052;BME280;3567;52.444;13.556;2022-11-13T05:27:56;102606.94;;;9.69;100.00
7052;BME280;3567;52.444;13.556;2022-11-13T05:30:22;102607.09;;;9.68;100.00
7052;BME280;3567;52.444;13.556;2022-11-13T05:32:47;102605.44;;;9.67;100.00
7052;BME280;3567;52.444;13.556;2022-11-13T05:35:13;102601.09;;;9.66;100.00
7052;BME280;3567;52.444;13.556;2022-11-13T05:37:38;102604.59;;;9.66;100.00
7052;BME280;3567;52.444;13.556;2022-11-13T05:40:04;102597.41;;;9.67;100.00
7052;BME280;3567;52.444;13.556;2022-11-13T05:42:30;102592.88;;;9.67;100.00
7052;BME280;3567;52.444;13.556;2022-11-13T05:44:55;102598.25;;;9.67;100.00
7052;BME280;3567;52.444;13.556;2022-11-13T05:47:20;102595.56;;;9.67;100.00
7052;BME280;3567;52.444;13.556;2022-11-13T05:49:46;102599.06;;;9.68;100.00
7052;BME280;3567;52.444;13.556;2022-11-13T05:52:11;102596.41;;;9.68;100.00
7052;BME280;3567;52.444;13.556;2022-11-13T05:54:36;102593.72;;;9.68;100.00
7052;BME280;3567;52.444;13.556;2022-11-13T05:57:02;102590.03;;;9.69;100.00
7052;BME280;3567;52.444;13.556;2022-11-13T05:59:28;102587.34;;;9.69;100.00
7052;BME280;3567;52.444;13.556;2022-11-13T06:01:53;102586.53;;;9.68;100.00
7052;BME280;3567;52.444;13.556;2022-11-13T06:04:19;102591.88;;;9.68;100.00
7052;BME280;3567;52.444;13.556;2022-11-13T06:06:44;102589.03;;;9.70;100.00
7052;BME280;3567;52.444;13.556;2022-11-13T06:09:12;102581.66;;;9.72;100.00
7052;BME280;3567;52.444;13.556;2022-11-13T06:11:38;102581.66;;;9.72;100.00
7052;BME280;3567;52.444;13.556;2022-11-13T06:14:04;102586.00;;;9.73;100.00
7052;BME280;3567;52.444;13.556;2022-11-13T06:16:34;102575.09;;;9.75;100.00
7052;BME280;3567;52.444;13.556;2022-11-13T06:19:01;102575.97;;;9.75;100.00
7052;BME280;3567;52.444;13.556;2022-11-13T06:21:29;102568.91;;;9.74;100.00
7052;BME280;3567;52.444;13.556;2022-11-13T06:23:56;102565.25;;;9.75;100.00
7052;BME280;3567;52.444;13.556;2022-11-13T06:26:24;102577.63;;;9.76;100.00
7052;BME280;3567;52.444;13.556;2022-11-13T06:28:51;102573.94;;;9.77;100.00
7052;BME280;3567;52.444;13.556;2022-11-13T06:31:19;102559.53;;;9.78;100.00
7052;BME280;3567;52.444;13.556;2022-11-13T06:33:45;102565.72;;;9.79;100.00
7052;BME280;3567;52.444;13.556;2022-11-13T06:36:19;102570.06;;;9.80;100.00
7052;BME280;3567;52.444;13.556;2022-11-13T06:38:45;102564.88;;;9.78;100.00
7052;BME280;3567;52.444;13.556;2022-11-13T06:41:13;102566.38;;;9.81;100.00
7052;BME280;3567;52.444;13.556;2022-11-13T06:43:39;102558.69;;;9.78;100.00
7052;BME280;3567;52.444;13.556;2022-11-13T06:46:11;102563.03;;;9.79;100.00
7052;BME280;3567;52.444;13.556;2022-11-13T06:48:37;102557.53;;;9.80;100.00
7052;BME280;3567;52.444;13.556;2022-11-13T06:51:05;102555.84;;;9.79;100.00
7052;BME280;3567;52.444;13.556;2022-11-13T06:53:31;102555.84;;;9.79;100.00
7052;BME280;3567;52.444;13.556;2022-11-13T06:55:57;102560.84;;;9.82;100.00
7052;BME280;3567;52.444;13.556;2022-11-13T06:58:23;102553.66;;;9.83;100.00
7052;BME280;3567;52.444;13.556;2022-11-13T07:00:48;102556.13;;;9.84;100.00
7052;BME280;3567;52.444;13.556;2022-11-13T07:03:16;102559.66;;;9.85;100.00
7052;BME280;3567;52.444;13.556;2022-11-13T07:05:41;102554.47;;;9.83;100.00
7052;BME280;3567;52.444;13.556;2022-11-13T07:08:07;102552.44;;;9.85;100.00
7052;BME280;3567;52.444;13.556;2022-11-13T07:10:32;102552.44;;;9.85;100.00
7052;BME280;3567;52.444;13.556;2022-11-13T07:12:58;102544.41;;;9.85;100.00
7052;BME280;3567;52.444;13.556;2022-11-13T07:15:24;102549.75;;;9.85;100.00
7052;BME280;3567;52.444;13.556;2022-11-13T07:17:49;102548.09;;;9.84;100.00
7052;BME280;3567;52.444;13.556;2022-11-13T07:20:15;102549.75;;;9.85;100.00
7052;BME280;3567;52.444;13.556;2022-11-13T07:22:40;102547.09;;;9.85;100.00
7052;BME280;3567;52.444;13.556;2022-11-13T07:25:06;102546.44;;;9.83;100.00
7052;BME280;3567;52.444;13.556;2022-11-13T07:27:31;102540.06;;;9.84;100.00
7052;BME280;3567;52.444;13.556;2022-11-13T07:29:57;102539.06;;;9.85;100.00
7052;BME280;3567;52.444;13.556;2022-11-13T07:32:22;102524.22;;;9.83;100.00
7052;BME280;3567;52.444;13.556;2022-11-13T07:34:47;102531.22;;;9.84;100.00
7052;BME280;3567;52.444;13.556;2022-11-13T07:37:13;102540.06;;;9.84;100.00
7052;BME280;3567;52.444;13.556;2022-11-13T07:39:38;102534.72;;;9.84;100.00
7052;BME280;3567;52.444;13.556;2022-11-13T07:42:04;102539.06;;;9.85;100.00
7052;BME280;3567;52.444;13.556;2022-11-13T07:44:29;102540.75;;;9.86;100.00
7052;BME280;3567;52.444;13.556;2022-11-13T07:46:54;102544.25;;;9.87;100.00
7052;BME280;3567;52.444;13.556;2022-11-13T07:49:19;102541.59;;;9.87;100.00
7052;BME280;3567;52.444;13.556;2022-11-13T07:51:45;102541.19;;;9.90;100.00
7052;BME280;3567;52.444;13.556;2022-11-13T07:54:10;102540.38;;;9.89;100.00
7052;BME280;3567;52.444;13.556;2022-11-13T07:56:35;102538.38;;;9.91;100.00
7052;BME280;3567;52.444;13.556;2022-11-13T07:59:01;102533.00;;;9.91;100.00
7052;BME280;3567;52.444;13.556;2022-11-13T08:01:26;102530.97;;;9.93;100.00
7052;BME280;3567;52.444;13.556;2022-11-13T08:03:51;102538.81;;;9.95;100.00
7052;BME280;3567;52.444;13.556;2022-11-13T08:06:17;102528.94;;;9.95;100.00
7052;BME280;3567;52.444;13.556;2022-11-13T08:08:42;102527.56;;;10.00;100.00
7052;BME280;3567;52.444;13.556;2022-11-13T08:11:14;102535.25;;;10.03;100.00
7052;BME280;3567;52.444;13.556;2022-11-13T08:13:39;102533.59;;;10.02;100.00
7052;BME280;3567;52.444;13.556;2022-11-13T08:16:05;102533.41;;;10.03;100.00
7052;BME280;3567;52.444;13.556;2022-11-13T08:18:31;102535.06;;;10.04;100.00
7052;BME280;3567;52.444;13.556;2022-11-13T08:21:02;102537.56;;;10.06;100.00
7052;BME280;3567;52.444;13.556;2022-11-13T08:23:28;102527.50;;;10.08;100.00
7052;BME280;3567;52.444;13.556;2022-11-13T08:25:54;102531.66;;;10.10;100.00
7052;BME280;3567;52.444;13.556;2022-11-13T08:28:19;102536.00;;;10.11;100.00
7052;BME280;3567;52.444;13.556;2022-11-13T08:30:45;102529.81;;;10.11;100.00
7052;BME280;3567;52.444;13.556;2022-11-13T08:33:11;102534.16;;;10.12;100.00
7052;BME280;3567;52.444;13.556;2022-11-13T08:35:36;102531.47;;;10.12;100.00
7052;BME280;3567;52.444;13.556;2022-11-13T08:38:03;102531.47;;;10.12;100.00
7052;BME280;3567;52.444;13.556;2022-11-13T08:40:29;102527.97;;;10.11;100.00
7052;BME280;3567;52.444;13.556;2022-11-13T08:43:02;102535.66;;;10.14;100.00
7052;BME280;3567;52.444;13.556;2022-11-13T08:45:29;102535.47;;;10.16;100.00
7052;BME280;3567;52.444;13.556;2022-11-13T08:47:59;102531.75;;;10.17;100.00
7052;BME280;3567;52.444;13.556;2022-11-13T08:50:24;102536.75;;;10.20;100.00
7052;BME280;3567;52.444;13.556;2022-11-13T08:52:54;102537.41;;;10.22;100.00
7052;BME280;3567;52.444;13.556;2022-11-13T08:55:20;102545.13;;;10.25;100.00
7052;BME280;3567;52.444;13.556;2022-11-13T08:57:59;102536.06;;;10.26;100.00
7052;BME280;3567;52.444;13.556;2022-11-13T09:00:33;102535.44;;;10.24;100.00
7052;BME280;3567;52.444;13.556;2022-11-13T09:02:59;102531.91;;;10.23;100.00
7052;BME280;3567;52.444;13.556;2022-11-13T09:05:25;102532.03;;;10.22;100.00
7052;BME280;3567;52.444;13.556;2022-11-13T09:07:56;102527.72;;;10.21;100.00
7052;BME280;3567;52.444;13.556;2022-11-13T09:10:22;102533.91;;;10.21;100.00
7052;BME280;3567;52.444;13.556;2022-11-13T09:12:48;102523.19;;;10.21;100.00
7052;BME280;3567;52.444;13.556;2022-11-13T09:15:13;102524.00;;;10.22;100.00
7052;BME280;3567;52.444;13.556;2022-11-13T09:17:38;102521.34;;;10.22;100.00
7052;BME280;3567;52.444;13.556;2022-11-13T09:20:05;102514.13;;;10.22;100.00
7052;BME280;3567;52.444;13.556;2022-11-13T09:22:33;102524.72;;;10.24;100.00
7052;BME280;3567;52.444;13.556;2022-11-13T09:24:59;102521.66;;;10.27;100.00
7052;BME280;3567;52.444;13.556;2022-11-13T09:27:24;102528.69;;;10.28;100.00
7052;BME280;3567;52.444;13.556;2022-11-13T09:29:50;102527.50;;;10.31;100.00
7052;BME280;3567;52.444;13.556;2022-11-13T09:32:15;102526.13;;;10.35;100.00
7052;BME280;3567;52.444;13.556;2022-11-13T09:34:41;102526.41;;;10.40;100.00
7052;BME280;3567;52.444;13.556;2022-11-13T09:37:06;102521.47;;;10.43;100.00
7052;BME280;3567;52.444;13.556;2022-11-13T09:39:32;102524.44;;;10.48;99.73
7052;BME280;3567;52.444;13.556;2022-11-13T09:42:04;102515.84;;;10.53;100.00
7052;BME280;3567;52.444;13.556;2022-11-13T09:44:42;102517.97;;;10.58;99.36
7052;BME280;3567;52.444;13.556;2022-11-13T09:47:26;102510.97;;;10.57;98.84
7052;BME280;3567;52.444;13.556;2022-11-13T09:50:16;102512.63;;;10.58;98.46
7052;BME280;3567;52.444;13.556;2022-11-13T09:52:44;102515.31;;;10.58;98.19
7052;BME280;3567;52.444;13.556;2022-11-13T09:55:17;102514.41;;;10.65;98.20
7052;BME280;3567;52.444;13.556;2022-11-13T10:00:28;102509.75;;;10.74;97.62
7052;BME280;3567;52.444;13.556;2022-11-13T10:08:27;102505.28;;;10.81;95.86
7052;BME280;3567;52.444;13.556;2022-11-13T10:13:48;102497.84;;;10.77;95.33
7052;BME280;3567;52.444;13.556;2022-11-13T10:19:12;102488.38;;;10.81;94.74
7052;BME280;3567;52.444;13.556;2022-11-13T10:21:44;102489.22;;;10.81;94.80
7052;BME280;3567;52.444;13.556;2022-11-13T10:24:26;102482.84;;;10.82;94.92
7052;BME280;3567;52.444;13.556;2022-11-13T10:26:55;102485.97;;;10.86;94.76
7052;BME280;3567;52.444;13.556;2022-11-13T10:29:23;102482.09;;;10.88;94.38
7052;BME280;3567;52.444;13.556;2022-11-13T10:31:51;102476.34;;;10.91;94.92
7052;BME280;3567;52.444;13.556;2022-11-13T10:34:18;102486.34;;;10.97;94.21
7052;BME280;3567;52.444;13.556;2022-11-13T10:39:21;102471.91;;;10.98;93.81
7052;BME280;3567;52.444;13.556;2022-11-13T10:41:51;102466.16;;;11.01;93.53
7052;BME280;3567;52.444;13.556;2022-11-13T10:44:28;102474.88;;;11.04;93.38
7052;BME280;3567;52.444;13.556;2022-11-13T10:47:15;102469.09;;;11.07;93.15
7052;BME280;3567;52.444;13.556;2022-11-13T10:49:40;102469.38;;;11.12;93.45
7052;BME280;3567;52.444;13.556;2022-11-13T10:52:26;102470.28;;;11.19;92.67
7052;BME280;3567;52.444;13.556;2022-11-13T10:55:59;102464.03;;;11.33;91.96
7052;BME280;3567;52.444;13.556;2022-11-13T10:58:11;102461.53;;;11.32;90.72
7052;BME280;3567;52.444;13.556;2022-11-13T11:00:38;102457.81;;;11.33;91.04
7052;BME280;3567;52.444;13.556;2022-11-13T11:03:16;102450.44;;;11.35;91.64
7052;BME280;3567;52.444;13.556;2022-11-13T11:06:11;102446.31;;;11.39;91.06
7052;BME280;3567;52.444;13.556;2022-11-13T11:08:37;102444.28;;;11.41;90.72
7052;BME280;3567;52.444;13.556;2022-11-13T11:11:10;102443.47;;;11.40;91.47
7052;BME280;3567;52.444;13.556;2022-11-13T11:14:25;102442.03;;;11.44;90.69
7052;BME280;3567;52.444;13.556;2022-11-13T11:16:51;102435.06;;;11.50;90.82
7052;BME280;3567;52.444;13.556;2022-11-13T11:19:20;102438.22;;;11.53;90.46
7052;BME280;3567;52.444;13.556;2022-11-13T11:21:47;102431.44;;;11.58;90.29
7052;BME280;3567;52.444;13.556;2022-11-13T11:24:22;102431.34;;;11.72;89.98
7052;BME280;3567;52.444;13.556;2022-11-13T11:27:12;102423.22;;;11.87;89.73
7052;BME280;3567;52.444;13.556;2022-11-13T11:30:07;102418.94;;;12.27;88.87
7052;BME280;3567;52.444;13.556;2022-11-13T11:33:01;102415.84;;;12.78;88.40
7052;BME280;3567;52.444;13.556;2022-11-13T11:35:37;102405.19;;;13.31;86.22
7052;BME280;3567;52.444;13.556;2022-11-13T11:38:30;102411.81;;;13.69;84.13
7052;BME280;3567;52.444;13.556;2022-11-13T11:41:18;102401.66;;;13.97;81.90
7052;BME280;3567;52.444;13.556;2022-11-13T11:46:51;102399.53;;;14.19;80.68
7052;BME280;3567;52.444;13.556;2022-11-13T11:49:17;102402.00;;;14.21;80.08
7052;BME280;3567;52.444;13.556;2022-11-13T11:57:48;102389.16;;;14.23;78.94
7052;BME280;3567;52.444;13.556;2022-11-13T12:00:18;102393.03;;;14.40;78.75
7052;BME280;3567;52.444;13.556;2022-11-13T12:08:51;102367.97;;;14.33;78.11
7052;BME280;3567;52.444;13.556;2022-11-13T12:11:31;102370.91;;;14.25;78.25
7052;BME280;3567;52.444;13.556;2022-11-13T12:19:15;102354.47;;;14.39;76.43
7052;BME280;3567;52.444;13.556;2022-11-13T12:21:59;102360.72;;;14.27;76.43
7052;BME280;3567;52.444;13.556;2022-11-13T12:24:58;102358.69;;;14.22;76.83
7052;BME280;3567;52.444;13.556;2022-11-13T12:27:35;102357.00;;;14.28;76.68
7052;BME280;3567;52.444;13.556;2022-11-13T12:30:26;102346.81;;;14.30;76.27
7052;BME280;3567;52.444;13.556;2022-11-13T12:33:07;102347.88;;;14.29;76.36
7052;BME280;3567;52.444;13.556;2022-11-13T12:35:36;102351.44;;;14.23;76.24
7052;BME280;3567;52.444;13.556;2022-11-13T12:38:34;102345.03;;;14.10;76.45
7052;BME280;3567;52.444;13.556;2022-11-13T12:41:22;102349.44;;;13.92;76.97
7052;BME280;3567;52.444;13.556;2022-11-13T12:46:42;102331.91;;;13.49;78.27
7052;BME280;3567;52.444;13.556;2022-11-13T12:49:26;102320.34;;;13.29;78.88
7052;BME280;3567;52.444;13.556;2022-11-13T12:51:54;102318.63;;;13.15;80.07
7052;BME280;3567;52.444;13.556;2022-11-13T12:54:25;102320.09;;;12.97;80.74
7052;BME280;3567;52.444;13.556;2022-11-13T12:56:50;102325.25;;;12.85;80.77
7052;BME280;3567;52.444;13.556;2022-11-13T13:01:47;102315.28;;;12.73;81.23
7052;BME280;3567;52.444;13.556;2022-11-13T13:04:30;102315.72;;;12.70;82.20
7052;BME280;3567;52.444;13.556;2022-11-13T13:07:10;102300.78;;;12.61;81.00
7052;BME280;3567;52.444;13.556;2022-11-13T13:09:59;102309.69;;;12.54;81.94
7052;BME280;3567;52.444;13.556;2022-11-13T13:15:39;102303.63;;;12.39;81.88
7052;BME280;3567;52.444;13.556;2022-11-13T13:23:40;102293.69;;;12.26;82.79
7052;BME280;3567;52.444;13.556;2022-11-13T13:26:24;102292.84;;;12.26;83.34
7052;BME280;3567;52.444;13.556;2022-11-13T13:28:52;102296.16;;;12.28;82.89
7052;BME280;3567;52.444;13.556;2022-11-13T13:33:59;102295.94;;;12.23;83.00
7052;BME280;3567;52.444;13.556;2022-11-13T13:36:42;102293.25;;;12.23;83.12
7052;BME280;3567;52.444;13.556;2022-11-13T13:47:45;102283.75;;;12.27;82.58
7052;BME280;3567;52.444;13.556;2022-11-13T13:50:16;102286.84;;;12.24;82.37
7052;BME280;3567;52.444;13.556;2022-11-13T13:52:43;102292.63;;;12.21;82.91
7052;BME280;3567;52.444;13.556;2022-11-13T13:55:16;102289.06;;;12.14;83.39
7052;BME280;3567;52.444;13.556;2022-11-13T13:57:43;102294.00;;;12.03;83.61
7052;BME280;3567;52.444;13.556;2022-11-13T14:00:11;102294.63;;;11.99;84.32
7052;BME280;3567;52.444;13.556;2022-11-13T14:02:46;102289.41;;;11.91;84.80
7052;BME280;3567;52.444;13.556;2022-11-13T14:05:33;102293.25;;;11.82;84.96
7052;BME280;3567;52.444;13.556;2022-11-13T14:07:59;102291.56;;;11.74;86.01
7052;BME280;3567;52.444;13.556;2022-11-13T14:10:32;102283.66;;;11.66;86.30
7052;BME280;3567;52.444;13.556;2022-11-13T14:13:00;102279.72;;;11.62;86.59